Time;durP1;ratioP1;P1;durP2;ratioP2;P2;SDS_P1;SDS_P2;PMS_P1;PMS_P2;Temp;Humidity;BMP_temperature;BMP_pressure;BME280_temperature;BME280_humidity;BME280_pressure;Samples;Min_cycle;Max_cycle;Signal;HPM_P1;HPM_P2
2021/11/13 00:00:40;;;;;;;7.25;4.45;;;17.70;52.10;;;;;;5032873;28;20010;-56
2021/11/13 00:03:06;;;;;;;6.82;4.80;;;17.70;52.20;;;;;;5032766;28;20050;-57
2021/11/13 00:05:32;;;;;;;6.43;4.43;;;17.70;52.40;;;;;;5032622;28;20508;-57
2021/11/13 00:07:58;;;;;;;7.60;4.63;;;17.70;52.30;;;;;;5014777;28;20073;-56
2021/11/13 00:10:27;;;;;;;8.38;4.93;;;17.70;52.50;;;;;;5032907;28;20031;-56
2021/11/13 00:12:56;;;;;;;6.10;4.63;;;17.70;52.50;;;;;;5034625;28;20049;-57
2021/11/13 00:15:23;;;;;;;9.65;4.47;;;17.70;52.60;;;;;;5036482;28;20030;-57
2021/11/13 00:17:49;;;;;;;7.97;4.57;;;17.70;52.50;;;;;;5036431;28;20021;-57
2021/11/13 00:20:15;;;;;;;8.02;4.68;;;17.70;52.60;;;;;;5036590;28;20093;-58
2021/11/13 00:22:42;;;;;;;5.65;4.03;;;17.70;52.60;;;;;;5036718;28;20089;-57
2021/11/13 00:25:08;;;;;;;8.77;4.93;;;17.80;52.70;;;;;;5036499;28;20022;-57
2021/11/13 00:27:34;;;;;;;7.35;4.28;;;17.70;52.80;;;;;;5036640;28;20021;-57
2021/11/13 00:30:02;;;;;;;9.13;4.80;;;17.70;52.80;;;;;;5036553;28;20030;-57
2021/11/13 00:32:29;;;;;;;6.13;4.60;;;17.70;52.80;;;;;;5036561;28;20458;-58
2021/11/13 00:34:55;;;;;;;7.28;4.47;;;17.70;53.00;;;;;;5036090;28;20021;-57
2021/11/13 00:37:22;;;;;;;7.18;4.60;;;17.70;53.00;;;;;;5036708;28;20044;-55
2021/11/13 00:39:48;;;;;;;7.47;4.70;;;17.70;53.00;;;;;;5036531;28;20474;-57
2021/11/13 00:42:15;;;;;;;6.70;4.38;;;17.70;53.10;;;;;;5036486;28;20018;-57
2021/11/13 00:44:42;;;;;;;12.18;5.28;;;17.60;53.20;;;;;;5036183;28;20068;-55
2021/11/13 00:47:08;;;;;;;9.73;5.05;;;17.70;53.30;;;;;;5036270;28;20017;-57
2021/11/13 00:49:34;;;;;;;8.90;4.85;;;17.70;53.30;;;;;;5036555;28;20017;-58
2021/11/13 00:52:01;;;;;;;6.25;4.35;;;17.70;53.40;;;;;;5036257;28;20024;-58
2021/11/13 00:54:26;;;;;;;7.63;4.57;;;17.60;53.50;;;;;;5036284;28;20009;-57
2021/11/13 00:56:52;;;;;;;7.15;4.60;;;17.60;54.10;;;;;;5036640;28;20053;-57
2021/11/13 00:59:18;;;;;;;8.70;4.93;;;17.60;53.50;;;;;;5036614;28;20037;-57
2021/11/13 01:01:44;;;;;;;7.95;5.18;;;17.60;53.70;;;;;;5036334;28;20048;-57
2021/11/13 01:04:10;;;;;;;7.50;4.30;;;17.70;53.70;;;;;;5019157;28;20028;-57
2021/11/13 01:06:37;;;;;;;6.53;4.57;;;17.70;53.80;;;;;;5018315;28;20128;-57
2021/11/13 01:09:04;;;;;;;7.15;4.85;;;17.60;53.70;;;;;;5035621;28;20037;-57
2021/11/13 01:11:30;;;;;;;7.00;4.78;;;17.60;53.90;;;;;;5036290;28;20029;-58
2021/11/13 01:13:57;;;;;;;8.25;4.95;;;17.60;53.90;;;;;;5018079;28;20028;-56
2021/11/13 01:16:24;;;;;;;10.70;5.00;;;17.60;53.90;;;;;;5035026;28;20025;-58
2021/11/13 01:18:50;;;;;;;11.02;5.07;;;17.60;54.00;;;;;;5035355;28;20006;-57
2021/11/13 01:21:15;;;;;;;8.13;4.70;;;17.60;54.20;;;;;;5035408;28;20385;-58
2021/11/13 01:23:41;;;;;;;7.85;4.68;;;17.60;54.20;;;;;;5033935;28;20085;-57
2021/11/13 01:26:08;;;;;;;6.25;4.30;;;17.60;54.40;;;;;;5034806;28;20048;-57
2021/11/13 01:28:35;;;;;;;6.65;4.45;;;17.60;54.40;;;;;;5035255;28;20028;-57
2021/11/13 01:31:01;;;;;;;7.00;4.35;;;17.60;54.40;;;;;;5035252;28;20018;-58
2021/11/13 01:33:28;;;;;;;7.70;4.85;;;17.60;54.30;;;;;;5034920;28;20010;-57
2021/11/13 01:35:53;;;;;;;6.32;4.40;;;17.60;54.60;;;;;;5034884;28;20034;-57
2021/11/13 01:38:19;;;;;;;7.75;4.43;;;17.60;54.70;;;;;;5034996;28;20012;-57
2021/11/13 01:40:45;;;;;;;7.65;4.50;;;17.60;54.70;;;;;;5035174;28;20083;-57
2021/11/13 01:43:12;;;;;;;5.88;3.97;;;17.60;54.70;;;;;;5034899;28;20071;-57
2021/11/13 01:45:38;;;;;;;6.85;4.30;;;17.60;54.70;;;;;;5017526;28;20047;-57
2021/11/13 01:48:04;;;;;;;6.57;4.45;;;17.50;54.70;;;;;;5034620;28;20025;-57
2021/11/13 01:50:39;;;;;;;7.07;4.85;;;17.60;54.80;;;;;;5016975;28;20028;-57
2021/11/13 01:53:04;;;;;;;8.07;4.30;;;17.60;54.90;;;;;;5034879;28;20029;-57
2021/11/13 01:55:35;;;;;;;8.60;4.13;;;17.60;55.00;;;;;;5017068;28;20034;-56
2021/11/13 01:58:02;;;;;;;7.30;4.45;;;17.60;55.10;;;;;;5035051;28;20021;-58
2021/11/13 02:00:36;;;;;;;7.97;4.53;;;17.60;55.10;;;;;;5035658;28;20017;-57
2021/11/13 02:03:02;;;;;;;9.82;4.78;;;17.60;55.10;;;;;;5035028;28;20088;-58
2021/11/13 02:05:29;;;;;;;7.90;4.55;;;17.50;55.20;;;;;;5036068;28;20045;-57
2021/11/13 02:07:55;;;;;;;6.13;4.10;;;17.50;55.40;;;;;;5035728;28;20072;-57
2021/11/13 02:10:21;;;;;;;6.03;3.83;;;17.50;55.30;;;;;;5034566;28;20025;-61
2021/11/13 02:12:47;;;;;;;7.22;4.15;;;17.50;55.60;;;;;;5034873;28;20021;-57
2021/11/13 02:15:13;;;;;;;8.25;4.60;;;17.50;55.70;;;;;;5017443;28;20026;-57
2021/11/13 02:17:40;;;;;;;5.75;4.20;;;17.50;55.80;;;;;;5016867;28;20072;-56
2021/11/13 02:20:26;;;;;;;6.68;4.50;;;17.50;55.90;;;;;;5016643;28;20079;-57
2021/11/13 02:22:53;;;;;;;6.47;3.83;;;17.50;56.10;;;;;;5034407;28;20056;-57
2021/11/13 02:25:21;;;;;;;6.07;3.80;;;17.50;56.10;;;;;;5035064;28;20013;-57
2021/11/13 02:27:48;;;;;;;6.50;4.13;;;17.50;56.10;;;;;;5035156;28;20075;-57
2021/11/13 02:30:13;;;;;;;7.85;4.10;;;17.50;56.20;;;;;;5035659;28;20425;-57
2021/11/13 02:32:39;;;;;;;5.50;4.00;;;17.50;56.10;;;;;;5035352;28;20026;-57
2021/11/13 02:35:07;;;;;;;6.50;4.00;;;17.40;56.30;;;;;;5035225;28;20037;-57
2021/11/13 02:37:33;;;;;;;6.82;4.10;;;17.50;56.50;;;;;;5018167;28;20103;-58
2021/11/13 02:39:58;;;;;;;7.95;4.55;;;17.50;56.50;;;;;;5001168;28;20037;-58
2021/11/13 02:42:25;;;;;;;6.65;4.00;;;17.40;56.70;;;;;;5035774;28;20013;-57
2021/11/13 02:44:50;;;;;;;5.57;3.58;;;17.50;56.70;;;;;;5035761;28;20041;-57
2021/11/13 02:47:18;;;;;;;6.05;3.80;;;17.50;56.80;;;;;;5036344;28;20013;-57
2021/11/13 02:49:44;;;;;;;6.60;3.80;;;17.50;56.70;;;;;;5036307;28;20041;-57
2021/11/13 02:52:11;;;;;;;8.40;3.85;;;17.50;56.90;;;;;;5018078;28;20029;-57
2021/11/13 02:54:47;;;;;;;9.07;4.07;;;17.50;56.90;;;;;;5036889;28;20064;-58
2021/11/13 02:57:14;;;;;;;6.30;3.67;;;17.50;56.90;;;;;;5036396;28;20029;-56
2021/11/13 02:59:43;;;;;;;5.63;3.88;;;17.50;57.00;;;;;;5033223;28;20502;-57
2021/11/13 03:02:10;;;;;;;7.70;3.42;;;17.50;56.90;;;;;;5033162;28;20049;-55
2021/11/13 03:04:36;;;;;;;6.18;3.70;;;17.50;57.00;;;;;;5033665;28;20036;-57
2021/11/13 03:07:03;;;;;;;6.63;4.05;;;17.50;57.10;;;;;;5033164;28;20441;-58
2021/11/13 03:09:29;;;;;;;5.13;3.42;;;17.50;57.00;;;;;;5033367;28;20021;-57
2021/11/13 03:11:56;;;;;;;4.53;3.13;;;17.50;57.10;;;;;;5033470;28;20044;-57
2021/11/13 03:14:23;;;;;;;4.03;3.20;;;17.50;57.10;;;;;;5034600;28;20090;-56
2021/11/13 03:16:50;;;;;;;5.90;3.42;;;17.50;57.10;;;;;;5034775;28;20029;-57
2021/11/13 03:19:16;;;;;;;8.30;3.42;;;17.50;57.10;;;;;;5034329;28;20096;-56
2021/11/13 03:21:42;;;;;;;6.00;3.40;;;17.50;57.20;;;;;;5033998;28;20037;-56
2021/11/13 03:24:08;;;;;;;7.35;3.40;;;17.50;57.20;;;;;;5033823;28;20005;-56
2021/11/13 03:26:35;;;;;;;5.30;3.17;;;17.50;57.30;;;;;;5034297;28;20023;-56
2021/11/13 03:29:17;;;;;;;4.38;2.95;;;17.50;57.40;;;;;;5016565;28;20051;-56
2021/11/13 03:31:44;;;;;;;3.88;2.83;;;17.50;57.40;;;;;;5018052;28;20105;-56
2021/11/13 03:34:10;;;;;;;4.65;3.00;;;17.50;57.50;;;;;;5034005;28;20021;-56
2021/11/13 03:36:35;;;;;;;4.25;2.80;;;17.50;57.50;;;;;;5033826;28;20490;-56
2021/11/13 03:39:03;;;;;;;4.32;2.40;;;17.50;58.00;;;;;;5034364;28;20063;-56
2021/11/13 03:41:32;;;;;;;3.75;2.67;;;17.50;57.60;;;;;;5034665;28;20014;-55
2021/11/13 03:43:58;;;;;;;8.65;2.78;;;17.50;57.60;;;;;;5035110;28;20021;-57
2021/11/13 03:46:23;;;;;;;5.47;2.80;;;17.50;57.70;;;;;;5018224;28;20489;-57
2021/11/13 03:48:50;;;;;;;4.72;2.55;;;17.50;57.70;;;;;;5039712;28;20033;-56
2021/11/13 03:51:16;;;;;;;5.18;2.60;;;17.50;57.80;;;;;;5039316;28;20022;-57
2021/11/13 03:53:42;;;;;;;4.15;2.55;;;17.50;57.80;;;;;;5039798;28;20040;-57
2021/11/13 03:56:08;;;;;;;3.30;2.08;;;17.50;57.80;;;;;;5039403;28;20029;-57
2021/11/13 03:58:34;;;;;;;4.20;2.25;;;17.40;57.80;;;;;;5039239;28;20105;-57
2021/11/13 04:00:59;;;;;;;3.40;2.22;;;17.50;57.90;;;;;;5039426;28;20061;-57
2021/11/13 04:03:26;;;;;;;3.40;2.15;;;17.50;57.80;;;;;;5040262;28;20024;-58
2021/11/13 04:05:51;;;;;;;3.30;2.20;;;17.40;57.90;;;;;;5040078;28;20017;-58
2021/11/13 04:08:18;;;;;;;3.47;2.30;;;17.50;58.00;;;;;;5041073;28;20049;-58
2021/11/13 04:10:44;;;;;;;3.95;1.95;;;17.50;58.00;;;;;;5042590;28;20568;-58
2021/11/13 04:13:10;;;;;;;3.45;2.17;;;17.40;58.10;;;;;;5024240;28;20061;-58
2021/11/13 04:15:37;;;;;;;3.72;2.42;;;17.40;58.20;;;;;;5041239;28;20057;-58
2021/11/13 04:18:03;;;;;;;5.18;2.10;;;17.40;58.20;;;;;;5040211;28;20541;-58
2021/11/13 04:20:29;;;;;;;3.05;1.90;;;17.40;58.30;;;;;;5039524;28;20048;-58
2021/11/13 04:22:55;;;;;;;3.78;1.85;;;17.40;58.30;;;;;;5038715;28;20017;-57
2021/11/13 04:25:22;;;;;;;3.47;1.98;;;17.40;58.40;;;;;;5038650;28;20020;-57
2021/11/13 04:27:49;;;;;;;4.95;1.80;;;17.40;58.60;;;;;;5038340;28;20026;-57
2021/11/13 04:30:15;;;;;;;3.88;2.03;;;17.40;58.60;;;;;;5037913;28;20025;-57
2021/11/13 04:32:45;;;;;;;2.72;1.45;;;17.40;58.70;;;;;;5037862;28;20025;-58
2021/11/13 04:35:15;;;;;;;3.45;1.92;;;17.40;58.70;;;;;;5037015;28;20037;-57
2021/11/13 04:37:44;;;;;;;3.25;1.48;;;17.40;58.70;;;;;;5037154;28;20021;-57
2021/11/13 04:40:10;;;;;;;3.20;1.90;;;17.40;58.80;;;;;;5036849;28;20006;-58
2021/11/13 04:42:37;;;;;;;2.85;1.65;;;17.40;58.80;;;;;;5036813;28;20028;-58
2021/11/13 04:45:05;;;;;;;3.05;1.58;;;17.40;58.80;;;;;;5018477;28;20033;-57
2021/11/13 04:47:33;;;;;;;2.63;1.40;;;17.40;58.90;;;;;;5036298;28;20029;-57
2021/11/13 04:50:00;;;;;;;1.83;1.27;;;17.40;59.00;;;;;;5036352;28;20140;-58
2021/11/13 04:52:28;;;;;;;4.80;1.40;;;17.40;59.00;;;;;;5035984;28;20017;-57
2021/11/13 04:54:55;;;;;;;4.63;1.95;;;17.40;59.00;;;;;;5018815;28;20048;-58
2021/11/13 04:57:21;;;;;;;4.32;1.40;;;17.40;59.00;;;;;;5018140;28;20022;-58
2021/11/13 04:59:47;;;;;;;3.45;1.67;;;17.40;59.00;;;;;;5018114;28;20014;-57
2021/11/13 05:02:13;;;;;;;3.58;1.83;;;17.40;59.10;;;;;;5035854;28;20136;-58
2021/11/13 05:04:39;;;;;;;2.78;1.77;;;17.40;59.20;;;;;;5018028;28;20507;-57
2021/11/13 05:07:04;;;;;;;2.85;1.55;;;17.40;59.30;;;;;;5017862;28;20100;-58
2021/11/13 05:09:31;;;;;;;3.75;1.67;;;17.40;59.20;;;;;;5035594;28;20022;-57
2021/11/13 05:11:57;;;;;;;6.15;1.48;;;17.40;59.30;;;;;;5018195;28;20083;-57
2021/11/13 05:14:23;;;;;;;4.03;1.60;;;17.40;59.40;;;;;;5035730;28;20445;-57
2021/11/13 05:16:49;;;;;;;3.05;1.38;;;17.40;59.40;;;;;;5035868;28;20075;-58
2021/11/13 05:19:16;;;;;;;3.97;1.80;;;17.40;59.50;;;;;;5037239;28;20021;-56
2021/11/13 05:21:43;;;;;;;2.95;1.60;;;17.40;59.60;;;;;;5037359;28;20025;-57
2021/11/13 05:24:09;;;;;;;3.22;1.65;;;17.40;59.70;;;;;;5037028;28;20084;-57
2021/11/13 05:26:35;;;;;;;4.20;1.55;;;17.40;59.70;;;;;;5036976;28;20047;-57
2021/11/13 05:29:02;;;;;;;7.30;1.98;;;17.40;59.70;;;;;;5018647;28;20477;-56
2021/11/13 05:31:28;;;;;;;4.05;1.63;;;17.40;59.70;;;;;;5036104;28;20017;-56
2021/11/13 05:33:53;;;;;;;3.58;1.50;;;17.40;59.70;;;;;;5018598;28;20075;-57
2021/11/13 05:36:19;;;;;;;5.05;1.80;;;17.40;59.80;;;;;;5017974;28;20112;-57
2021/11/13 05:38:45;;;;;;;2.78;1.50;;;17.40;59.80;;;;;;5035770;28;20021;-57
2021/11/13 05:41:11;;;;;;;3.80;1.75;;;17.30;59.80;;;;;;5035938;28;20024;-57
2021/11/13 05:43:37;;;;;;;3.30;1.73;;;17.40;59.80;;;;;;5035604;28;20014;-58
2021/11/13 05:46:03;;;;;;;3.83;1.60;;;17.40;59.90;;;;;;5034829;28;20135;-57
2021/11/13 05:48:29;;;;;;;4.38;1.55;;;17.40;59.90;;;;;;5017491;28;20026;-57
2021/11/13 05:50:56;;;;;;;3.65;1.38;;;17.30;60.00;;;;;;5034954;28;20041;-58
2021/11/13 05:53:22;;;;;;;3.45;1.70;;;17.40;60.10;;;;;;5034984;28;20120;-58
2021/11/13 05:55:48;;;;;;;4.03;2.17;;;17.40;59.90;;;;;;5017243;28;20018;-57
2021/11/13 05:58:18;;;;;;;3.97;1.55;;;17.40;60.00;;;;;;5036472;28;20052;-58
2021/11/13 06:00:45;;;;;;;4.72;1.65;;;17.40;60.10;;;;;;5037651;28;20036;-58
2021/11/13 06:03:12;;;;;;;4.68;1.80;;;17.40;60.20;;;;;;5037449;28;20006;-57
2021/11/13 06:05:38;;;;;;;3.53;1.75;;;17.40;60.20;;;;;;5037448;28;20028;-58
2021/11/13 06:08:05;;;;;;;4.07;1.70;;;17.40;60.20;;;;;;5037005;28;20103;-57
2021/11/13 06:10:31;;;;;;;3.50;1.38;;;17.30;60.30;;;;;;5035881;28;20099;-57
2021/11/13 06:12:57;;;;;;;3.80;1.77;;;17.30;60.40;;;;;;5036237;28;20021;-57
2021/11/13 06:15:24;;;;;;;3.38;1.50;;;17.30;60.30;;;;;;5034983;28;20025;-58
2021/11/13 06:17:50;;;;;;;4.90;1.65;;;17.40;60.40;;;;;;5017231;28;20466;-57
2021/11/13 06:20:16;;;;;;;4.88;1.65;;;17.40;60.30;;;;;;5034959;28;20024;-57
2021/11/13 06:22:43;;;;;;;5.10;1.70;;;17.40;60.30;;;;;;5034578;28;20466;-58
2021/11/13 06:25:10;;;;;;;4.63;1.63;;;17.40;60.30;;;;;;5017311;28;20501;-58
2021/11/13 06:27:36;;;;;;;4.25;1.58;;;17.40;60.40;;;;;;5034476;28;20016;-58
2021/11/13 06:30:04;;;;;;;4.00;1.33;;;17.30;60.40;;;;;;5035879;28;20014;-58
2021/11/13 06:32:30;;;;;;;4.18;1.73;;;17.30;60.50;;;;;;5035728;28;20010;-58
2021/11/13 06:34:58;;;;;;;4.32;1.45;;;17.30;60.60;;;;;;5036081;28;20596;-58
2021/11/13 06:37:24;;;;;;;4.90;1.85;;;17.30;60.60;;;;;;5036357;28;20018;-58
2021/11/13 06:39:51;;;;;;;6.07;1.67;;;17.30;60.70;;;;;;5035745;28;20537;-57
2021/11/13 06:42:16;;;;;;;2.42;1.17;;;17.30;60.70;;;;;;5035809;28;20006;-58
2021/11/13 06:44:43;;;;;;;3.80;1.45;;;17.30;60.70;;;;;;5035882;28;20034;-57
2021/11/13 06:47:09;;;;;;;4.63;1.70;;;17.30;60.90;;;;;;5035551;28;20014;-57
2021/11/13 06:49:36;;;;;;;3.75;1.20;;;17.30;60.90;;;;;;5035157;28;20046;-58
2021/11/13 06:52:03;;;;;;;5.18;1.50;;;17.30;60.90;;;;;;5035086;28;20026;-57
2021/11/13 06:54:30;;;;;;;5.60;1.70;;;17.30;60.80;;;;;;5034794;28;20034;-57
2021/11/13 06:56:56;;;;;;;5.10;1.75;;;17.30;60.90;;;;;;5034414;28;20029;-57
2021/11/13 06:59:23;;;;;;;5.13;1.42;;;17.30;61.40;;;;;;5033896;28;20097;-57
2021/11/13 07:01:49;;;;;;;3.80;1.55;;;17.30;61.00;;;;;;5033978;28;20017;-57
2021/11/13 07:04:15;;;;;;;3.80;1.33;;;17.30;61.10;;;;;;5033902;28;20017;-57
2021/11/13 07:06:41;;;;;;;4.53;1.50;;;17.30;61.10;;;;;;5033401;28;20041;-57
2021/11/13 07:09:07;;;;;;;4.22;1.65;;;17.30;61.10;;;;;;5016084;28;20029;-57
2021/11/13 07:11:34;;;;;;;4.75;1.63;;;17.30;61.10;;;;;;5033907;28;20589;-57
2021/11/13 07:14:00;;;;;;;2.70;1.05;;;17.30;61.10;;;;;;5016396;28;20231;-58
2021/11/13 07:16:25;;;;;;;5.47;1.58;;;17.30;61.10;;;;;;5033993;28;20134;-57
2021/11/13 07:18:51;;;;;;;4.32;1.55;;;17.30;61.20;;;;;;5034437;28;20029;-57
2021/11/13 07:21:17;;;;;;;2.55;1.33;;;17.30;61.10;;;;;;5016449;28;20012;-57
2021/11/13 07:23:43;;;;;;;3.92;1.35;;;17.30;61.20;;;;;;5034200;28;20063;-57
2021/11/13 07:26:11;;;;;;;2.35;1.10;;;17.30;61.20;;;;;;5016907;28;20014;-57
2021/11/13 07:31:02;;;;;;;3.15;1.58;;;17.30;61.20;;;;;;5036782;28;20029;-57
2021/11/13 07:33:28;;;;;;;4.68;1.52;;;17.30;61.30;;;;;;5019690;28;20044;-58
2021/11/13 07:35:54;;;;;;;3.83;1.40;;;17.30;61.30;;;;;;5037218;28;20029;-57
2021/11/13 07:38:21;;;;;;;2.75;1.27;;;17.30;61.30;;;;;;5018519;28;20026;-57
2021/11/13 07:40:47;;;;;;;3.08;1.20;;;17.30;61.50;;;;;;5036635;28;20056;-57
2021/11/13 07:43:13;;;;;;;2.90;1.27;;;17.30;61.30;;;;;;5037159;28;20018;-57
2021/11/13 07:45:39;;;;;;;2.78;1.10;;;17.30;61.40;;;;;;5019371;28;20413;-57
2021/11/13 07:48:07;;;;;;;2.85;1.10;;;17.30;61.40;;;;;;5018816;28;20014;-59
2021/11/13 07:50:35;;;;;;;2.78;1.48;;;17.30;61.40;;;;;;5036933;28;20072;-57
2021/11/13 07:53:04;;;;;;;3.05;1.00;;;17.30;61.40;;;;;;5037586;28;20021;-58
2021/11/13 07:55:30;;;;;;;2.38;1.00;;;17.30;61.50;;;;;;5004234;28;20085;-57
2021/11/13 07:57:57;;;;;;;2.05;1.20;;;17.30;61.50;;;;;;5037677;28;20022;-56
2021/11/13 08:00:22;;;;;;;2.28;1.00;;;17.30;61.50;;;;;;5038330;28;20076;-57
2021/11/13 08:02:48;;;;;;;2.05;1.13;;;17.30;61.40;;;;;;5038475;28;20032;-58
2021/11/13 08:05:15;;;;;;;3.75;1.30;;;17.30;61.40;;;;;;5020562;28;20025;-57
2021/11/13 08:07:42;;;;;;;4.50;1.55;;;17.30;61.50;;;;;;5037850;28;20045;-57
2021/11/13 08:10:08;;;;;;;2.15;0.93;;;17.30;61.50;;;;;;5037932;28;20032;-58
2021/11/13 08:12:34;;;;;;;2.45;1.23;;;17.30;61.50;;;;;;5037925;28;20049;-57
2021/11/13 08:15:00;;;;;;;2.90;1.35;;;17.30;61.50;;;;;;5033217;28;20095;-57
2021/11/13 08:17:26;;;;;;;5.90;1.70;;;17.30;61.50;;;;;;5033236;28;20476;-59
2021/11/13 08:19:52;;;;;;;3.08;1.13;;;17.30;61.50;;;;;;5032998;28;20009;-58
2021/11/13 08:22:18;;;;;;;3.33;1.75;;;17.30;61.50;;;;;;5015392;28;20101;-58
2021/11/13 08:24:44;;;;;;;2.90;1.35;;;17.30;61.50;;;;;;5033334;28;20025;-58
2021/11/13 08:27:12;;;;;;;3.42;1.00;;;17.30;61.50;;;;;;5033337;28;20017;-58
2021/11/13 08:29:38;;;;;;;2.63;1.15;;;17.20;61.50;;;;;;5015803;28;20053;-56
2021/11/13 08:32:06;;;;;;;4.30;1.60;;;17.30;61.60;;;;;;5015493;28;20025;-57
2021/11/13 08:34:32;;;;;;;5.43;1.30;;;17.30;61.50;;;;;;5018216;28;20097;-58
2021/11/13 08:36:57;;;;;;;2.95;1.10;;;17.30;61.50;;;;;;5036020;28;20565;-57
2021/11/13 08:39:25;;;;;;;2.28;0.90;;;17.20;62.00;;;;;;5019016;28;20108;-59
2021/11/13 08:41:51;;;;;;;3.10;1.30;;;17.30;61.50;;;;;;5018835;28;20474;-59
2021/11/13 08:44:16;;;;;;;2.42;1.00;;;17.30;61.60;;;;;;5036457;28;20063;-58
2021/11/13 08:46:42;;;;;;;2.28;1.10;;;17.20;61.60;;;;;;5036225;28;20045;-58
2021/11/13 08:49:09;;;;;;;2.70;1.40;;;17.20;61.70;;;;;;5035944;28;20473;-59
2021/11/13 08:51:35;;;;;;;2.65;1.25;;;17.20;61.80;;;;;;5002341;28;20028;-58
2021/11/13 08:54:01;;;;;;;4.70;1.38;;;17.20;61.80;;;;;;5036351;28;20024;-59
2021/11/13 08:56:28;;;;;;;4.10;1.30;;;17.20;61.70;;;;;;5018378;28;20504;-57
2021/11/13 08:58:54;;;;;;;3.67;1.35;;;17.30;61.80;;;;;;5018347;28;20006;-58
2021/11/13 09:01:20;;;;;;;3.67;1.40;;;17.20;61.70;;;;;;5017906;28;20470;-58
2021/11/13 09:03:47;;;;;;;4.22;1.65;;;17.20;61.80;;;;;;5035789;28;20018;-57
2021/11/13 09:06:18;;;;;;;2.72;0.95;;;17.20;61.80;;;;;;5035522;28;20058;-57
2021/11/13 09:08:44;;;;;;;;;;;17.30;62.40;;;;;;5036176;28;20019;-58
2021/11/13 09:11:12;;;;;;;2.67;1.45;;;17.20;61.90;;;;;;5035677;28;19951;-59
2021/11/13 09:13:38;;;;;;;3.60;1.40;;;17.20;61.80;;;;;;5035709;28;20022;-59
2021/11/13 09:16:05;;;;;;;5.20;1.42;;;17.20;61.80;;;;;;5036027;28;20452;-59
2021/11/13 09:18:32;;;;;;;3.78;1.30;;;17.30;61.80;;;;;;5036301;28;20045;-57
2021/11/13 09:20:57;;;;;;;3.65;1.40;;;17.20;61.90;;;;;;5036193;28;20020;-58
2021/11/13 09:23:24;;;;;;;4.13;1.20;;;17.20;61.90;;;;;;5036065;28;20096;-59
2021/11/13 09:25:50;;;;;;;4.30;1.70;;;17.30;61.90;;;;;;5018676;28;20028;-58
2021/11/13 09:28:16;;;;;;;3.50;1.20;;;17.30;62.00;;;;;;5036482;28;20022;-58
2021/11/13 09:30:42;;;;;;;3.13;1.33;;;17.20;62.00;;;;;;5018960;28;20033;-58
2021/11/13 09:33:08;;;;;;;3.28;1.30;;;17.30;62.00;;;;;;5036436;28;20037;-58
2021/11/13 09:35:35;;;;;;;6.80;1.60;;;17.20;61.90;;;;;;5036906;28;20100;-57
2021/11/13 09:38:01;;;;;;;5.65;1.40;;;17.20;62.00;;;;;;5018880;28;20535;-58
2021/11/13 09:40:27;;;;;;;3.20;1.42;;;17.20;62.00;;;;;;5036766;28;20513;-58
2021/11/13 09:42:57;;;;;;;3.80;1.35;;;17.20;62.10;;;;;;5036715;28;20149;-57
2021/11/13 09:45:23;;;;;;;3.15;1.30;;;17.30;62.10;;;;;;5035586;28;20493;-57
2021/11/13 09:47:50;;;;;;;2.53;1.08;;;17.20;62.10;;;;;;5036759;28;20021;-58
2021/11/13 09:50:17;;;;;;;2.53;1.10;;;17.30;62.10;;;;;;5037059;28;20470;-57
2021/11/13 09:52:43;;;;;;;3.35;1.25;;;17.30;62.20;;;;;;5036341;28;20018;-57
2021/11/13 09:55:09;;;;;;;3.85;1.10;;;17.30;62.10;;;;;;5036498;28;20024;-57
2021/11/13 09:57:37;;;;;;;2.75;1.05;;;17.30;62.10;;;;;;5036699;28;20059;-57
2021/11/13 10:00:06;;;;;;;4.65;1.48;;;17.20;62.20;;;;;;5036104;28;20021;-58
2021/11/13 10:02:32;;;;;;;3.05;1.23;;;17.30;62.20;;;;;;5036289;28;20014;-58
2021/11/13 10:04:57;;;;;;;2.30;1.20;;;17.20;62.20;;;;;;5036556;28;20096;-58
2021/11/13 10:07:23;;;;;;;3.05;1.10;;;17.30;62.30;;;;;;5018092;28;20068;-58
2021/11/13 10:09:50;;;;;;;5.15;1.42;;;17.20;62.20;;;;;;5018641;28;20064;-58
2021/11/13 10:12:16;;;;;;;3.17;1.15;;;17.30;62.40;;;;;;5036184;28;20030;-58
2021/11/13 10:14:42;;;;;;;5.40;1.67;;;17.30;62.30;;;;;;5034367;28;20493;-58
2021/11/13 10:17:22;;;;;;;3.05;1.30;;;17.30;62.40;;;;;;5034235;28;20022;-58
2021/11/13 10:19:48;;;;;;;2.92;1.08;;;17.30;62.40;;;;;;5034314;28;20089;-57
2021/11/13 10:22:15;;;;;;;4.15;1.25;;;17.30;62.30;;;;;;5033948;28;20529;-58
2021/11/13 10:24:50;;;;;;;7.38;1.23;;;17.30;62.40;;;;;;5033817;28;20049;-58
2021/11/13 10:27:16;;;;;;;3.92;1.23;;;17.30;62.50;;;;;;5034200;28;20022;-58
2021/11/13 10:29:44;;;;;;;4.03;1.25;;;17.30;62.50;;;;;;5034134;28;20018;-58
2021/11/13 10:32:11;;;;;;;3.45;1.10;;;17.30;62.40;;;;;;5034053;28;20021;-57
2021/11/13 10:34:42;;;;;;;4.20;1.38;;;17.30;62.60;;;;;;5033845;28;20020;-58
2021/11/13 10:37:24;;;;;;;3.45;1.10;;;17.30;62.50;;;;;;5033806;28;20095;-58
2021/11/13 10:39:54;;;;;;;3.13;1.17;;;17.30;62.50;;;;;;5033889;28;20465;-58
2021/11/13 10:42:22;;;;;;;3.67;1.60;;;17.30;62.60;;;;;;5033892;28;20024;-59
2021/11/13 10:44:58;;;;;;;3.70;1.08;;;17.20;62.60;;;;;;5033756;28;20489;-58
2021/11/13 10:47:42;;;;;;;1.85;1.08;;;17.30;62.70;;;;;;5034242;28;20022;-57
2021/11/13 10:50:21;;;;;;;4.32;1.33;;;17.20;62.70;;;;;;5034211;28;20470;-58
2021/11/13 10:53:02;;;;;;;4.50;1.58;;;17.30;62.80;;;;;;5033950;28;20552;-58
2021/11/13 10:55:27;;;;;;;1.80;1.00;;;17.30;62.80;;;;;;5034294;28;20021;-58
2021/11/13 10:57:54;;;;;;;4.38;1.30;;;17.30;62.70;;;;;;5033880;28;20451;-57
2021/11/13 11:00:20;;;;;;;4.90;1.42;;;17.30;62.70;;;;;;5017491;28;20036;-58
2021/11/13 11:03:03;;;;;;;3.13;1.10;;;17.30;62.60;;;;;;5035098;28;20013;-59
2021/11/13 11:05:45;;;;;;;3.08;1.20;;;17.30;62.60;;;;;;5035975;28;20013;-59
2021/11/13 11:08:33;;;;;;;3.28;1.10;;;17.30;62.60;;;;;;5019136;28;20079;-59
2021/11/13 11:11:00;;;;;;;4.78;1.80;;;17.40;62.60;;;;;;5035968;28;20036;-59
2021/11/13 11:13:48;;;;;;;3.97;1.67;;;17.40;62.50;;;;;;5037071;28;20041;-59
2021/11/13 11:16:25;;;;;;;4.47;1.65;;;17.40;62.50;;;;;;5039280;28;20029;-59
2021/11/13 11:19:02;;;;;;;6.80;2.00;;;17.40;62.50;;;;;;5036600;28;20021;-59
2021/11/13 11:21:47;;;;;;;7.97;1.73;;;17.40;62.50;;;;;;5034719;28;20014;-59
2021/11/13 11:24:25;;;;;;;4.85;1.70;;;17.40;62.60;;;;;;5034547;28;20059;-59
2021/11/13 11:27:00;;;;;;;4.63;1.95;;;17.30;62.60;;;;;;5033930;28;20596;-59
2021/11/13 11:29:27;;;;;;;4.13;1.70;;;17.30;62.80;;;;;;5016194;28;20056;-59
2021/11/13 11:31:59;;;;;;;4.20;1.80;;;17.30;62.80;;;;;;5033970;28;20477;-59
2021/11/13 11:34:36;;;;;;;7.30;1.63;;;17.30;62.70;;;;;;5033995;28;20497;-58
2021/11/13 11:37:09;;;;;;;5.43;1.80;;;17.30;62.70;;;;;;5034033;28;20501;-59
2021/11/13 11:39:35;;;;;;;3.95;1.75;;;17.30;62.70;;;;;;5033773;28;20043;-58
2021/11/13 11:42:03;;;;;;;3.20;1.55;;;17.30;62.80;;;;;;5033930;28;20010;-58
2021/11/13 11:44:29;;;;;;;3.05;1.30;;;17.30;62.80;;;;;;5034576;28;20018;-58
2021/11/13 11:46:55;;;;;;;3.13;1.48;;;17.30;62.80;;;;;;5018044;28;20470;-58
2021/11/13 11:49:21;;;;;;;4.35;1.35;;;17.30;62.80;;;;;;5018368;28;20537;-58
2021/11/13 11:51:47;;;;;;;4.30;1.63;;;17.30;62.90;;;;;;5036231;28;20482;-59
2021/11/13 11:54:14;;;;;;;3.22;1.60;;;17.30;62.90;;;;;;5035692;28;20029;-58
2021/11/13 11:56:39;;;;;;;3.17;1.50;;;17.30;63.00;;;;;;5019795;28;20033;-58
2021/11/13 11:59:06;;;;;;;5.60;1.95;;;17.30;63.10;;;;;;5017228;28;20088;-58
2021/11/13 12:01:35;;;;;;;3.70;1.40;;;17.30;63.10;;;;;;5033068;28;20052;-58
2021/11/13 12:04:21;;;;;;;3.75;1.20;;;17.30;63.00;;;;;;5032583;28;20002;-58
2021/11/13 12:06:53;;;;;;;3.13;1.42;;;17.30;63.00;;;;;;5032531;28;20046;-58
2021/11/13 12:09:19;;;;;;;4.38;1.67;;;17.30;63.10;;;;;;5035328;28;20096;-58
2021/11/13 12:11:46;;;;;;;2.72;1.40;;;17.30;63.10;;;;;;5036690;28;20100;-57
2021/11/13 12:14:36;;;;;;;2.35;1.25;;;17.30;63.10;;;;;;5036316;28;20072;-58
2021/11/13 12:17:24;;;;;;;5.40;1.53;;;17.30;63.20;;;;;;5036206;28;20108;-58
2021/11/13 12:20:05;;;;;;;2.78;1.40;;;17.20;63.20;;;;;;5036555;28;20048;-58
2021/11/13 12:22:35;;;;;;;4.05;1.95;;;17.30;63.20;;;;;;5036683;28;20018;-59
2021/11/13 12:25:18;;;;;;;2.78;1.25;;;17.30;63.20;;;;;;5036526;28;20096;-58
2021/11/13 12:28:11;;;;;;;3.58;1.40;;;17.30;63.20;;;;;;5036531;28;20088;-58
2021/11/13 12:30:48;;;;;;;3.55;1.50;;;17.30;63.30;;;;;;5036367;28;20092;-57
2021/11/13 12:33:29;;;;;;;3.42;1.80;;;17.20;63.80;;;;;;5036324;28;20017;-57
2021/11/13 12:35:59;;;;;;;3.33;1.80;;;17.30;63.30;;;;;;5036468;28;20080;-58
2021/11/13 12:38:34;;;;;;;4.00;2.00;;;17.20;63.30;;;;;;5036182;28;20025;-57
2021/11/13 12:41:08;;;;;;;3.13;1.80;;;17.30;63.40;;;;;;5036214;28;20029;-57
2021/11/13 12:43:56;;;;;;;3.70;1.85;;;17.30;63.30;;;;;;5036213;28;20014;-57
2021/11/13 12:46:36;;;;;;;4.43;2.00;;;17.30;63.20;;;;;;5035991;28;20033;-57
2021/11/13 12:49:23;;;;;;;4.20;1.65;;;17.30;63.00;;;;;;5036026;28;20078;-58
2021/11/13 12:51:54;;;;;;;3.72;1.88;;;17.30;63.10;;;;;;5036136;28;20116;-57
2021/11/13 12:54:21;;;;;;;;;;;17.40;63.00;;;;;;5036203;28;20053;-57